sensor_id;sensor_type;location;lat;lon;timestamp;temperature;humidity
20773;DHT22;10546;50.674;4.616;2022-07-12T05:51:02;24.00;99.90
20773;DHT22;10546;50.674;4.616;2022-07-12T05:53:47;24.00;99.90
20773;DHT22;10546;50.674;4.616;2022-07-12T05:56:13;23.90;99.90
20773;DHT22;10546;50.674;4.616;2022-07-12T05:58:39;24.40;99.90
20773;DHT22;10546;50.674;4.616;2022-07-12T06:01:05;24.70;99.90
20773;DHT22;10546;50.674;4.616;2022-07-12T06:03:31;25.30;99.90
20773;DHT22;10546;50.674;4.616;2022-07-12T06:05:56;25.40;99.90
20773;DHT22;10546;50.674;4.616;2022-07-12T06:08:22;25.50;99.90
20773;DHT22;10546;50.674;4.616;2022-07-12T06:10:48;25.70;99.90
20773;DHT22;10546;50.674;4.616;2022-07-12T06:13:15;25.30;99.90
20773;DHT22;10546;50.674;4.616;2022-07-12T06:15:40;24.90;99.90
20773;DHT22;10546;50.674;4.616;2022-07-12T06:18:06;24.60;99.90
20773;DHT22;10546;50.674;4.616;2022-07-12T06:20:32;24.60;99.90
20773;DHT22;10546;50.674;4.616;2022-07-12T06:22:58;24.70;99.90
20773;DHT22;10546;50.674;4.616;2022-07-12T06:25:24;25.20;99.90
20773;DHT22;10546;50.674;4.616;2022-07-12T06:27:51;25.90;99.90
20773;DHT22;10546;50.674;4.616;2022-07-12T06:30:18;26.40;99.90
20773;DHT22;10546;50.674;4.616;2022-07-12T06:32:45;26.70;99.90
20773;DHT22;10546;50.674;4.616;2022-07-12T06:35:12;27.00;99.90
20773;DHT22;10546;50.674;4.616;2022-07-12T06:37:38;27.40;99.90
20773;DHT22;10546;50.674;4.616;2022-07-12T06:40:04;27.30;99.90
20773;DHT22;10546;50.674;4.616;2022-07-12T06:42:31;27.10;99.90
20773;DHT22;10546;50.674;4.616;2022-07-12T06:44:56;27.40;99.90
20773;DHT22;10546;50.674;4.616;2022-07-12T06:47:22;27.30;99.90
20773;DHT22;10546;50.674;4.616;2022-07-12T06:49:48;26.70;99.90
20773;DHT22;10546;50.674;4.616;2022-07-12T06:52:13;26.40;99.90
20773;DHT22;10546;50.674;4.616;2022-07-12T06:54:39;26.50;99.90
20773;DHT22;10546;50.674;4.616;2022-07-12T06:57:05;26.60;99.90
20773;DHT22;10546;50.674;4.616;2022-07-12T06:59:31;26.70;99.90
20773;DHT22;10546;50.674;4.616;2022-07-12T07:01:57;26.80;99.90
20773;DHT22;10546;50.674;4.616;2022-07-12T07:04:23;26.80;99.90
20773;DHT22;10546;50.674;4.616;2022-07-12T07:06:49;27.10;99.90
20773;DHT22;10546;50.674;4.616;2022-07-12T07:09:15;27.20;99.90
20773;DHT22;10546;50.674;4.616;2022-07-12T07:11:42;27.30;99.90
20773;DHT22;10546;50.674;4.616;2022-07-12T07:14:08;27.70;99.90
20773;DHT22;10546;50.674;4.616;2022-07-12T07:16:33;27.50;99.90
20773;DHT22;10546;50.674;4.616;2022-07-12T07:18:59;27.40;99.90
20773;DHT22;10546;50.674;4.616;2022-07-12T07:21:25;27.30;99.90
20773;DHT22;10546;50.674;4.616;2022-07-12T07:23:55;27.80;99.90
20773;DHT22;10546;50.674;4.616;2022-07-12T07:26:21;28.60;99.90
20773;DHT22;10546;50.674;4.616;2022-07-12T07:28:47;29.50;99.90
20773;DHT22;10546;50.674;4.616;2022-07-12T07:31:36;30.40;99.90
20773;DHT22;10546;50.674;4.616;2022-07-12T07:34:03;30.90;99.90
20773;DHT22;10546;50.674;4.616;2022-07-12T07:36:29;30.80;99.90
20773;DHT22;10546;50.674;4.616;2022-07-12T07:38:56;31.00;99.90
20773;DHT22;10546;50.674;4.616;2022-07-12T07:41:22;31.00;99.40
20773;DHT22;10546;50.674;4.616;2022-07-12T07:43:47;31.30;98.70
20773;DHT22;10546;50.674;4.616;2022-07-12T07:46:13;30.80;98.60
20773;DHT22;10546;50.674;4.616;2022-07-12T07:48:38;31.20;98.50
20773;DHT22;10546;50.674;4.616;2022-07-12T07:51:04;30.80;98.50
20773;DHT22;10546;50.674;4.616;2022-07-12T07:53:30;30.90;98.30
20773;DHT22;10546;50.674;4.616;2022-07-12T07:55:55;30.90;98.00
20773;DHT22;10546;50.674;4.616;2022-07-12T07:58:21;31.20;97.60
20773;DHT22;10546;50.674;4.616;2022-07-12T08:00:49;31.40;97.70
20773;DHT22;10546;50.674;4.616;2022-07-12T08:03:15;32.10;96.80
20773;DHT22;10546;50.674;4.616;2022-07-12T08:05:41;33.10;96.20
20773;DHT22;10546;50.674;4.616;2022-07-12T08:08:07;33.10;94.80
20773;DHT22;10546;50.674;4.616;2022-07-12T08:10:32;32.50;94.40
20773;DHT22;10546;50.674;4.616;2022-07-12T08:12:59;32.30;95.00
20773;DHT22;10546;50.674;4.616;2022-07-12T08:15:25;32.20;94.60
20773;DHT22;10546;50.674;4.616;2022-07-12T08:17:51;32.20;94.20
20773;DHT22;10546;50.674;4.616;2022-07-12T08:20:17;32.50;94.10
20773;DHT22;10546;50.674;4.616;2022-07-12T08:22:44;33.00;93.60
20773;DHT22;10546;50.674;4.616;2022-07-12T08:25:10;32.90;93.00
20773;DHT22;10546;50.674;4.616;2022-07-12T08:27:36;33.70;92.70
20773;DHT22;10546;50.674;4.616;2022-07-12T08:30:02;33.40;91.80
20773;DHT22;10546;50.674;4.616;2022-07-12T08:32:27;33.30;91.30
20773;DHT22;10546;50.674;4.616;2022-07-12T08:34:53;33.30;91.90
20773;DHT22;10546;50.674;4.616;2022-07-12T08:37:19;33.30;91.30
20773;DHT22;10546;50.674;4.616;2022-07-12T08:39:44;33.00;90.50
20773;DHT22;10546;50.674;4.616;2022-07-12T08:42:14;32.70;90.80
20773;DHT22;10546;50.674;4.616;2022-07-12T08:44:40;32.40;90.80
20773;DHT22;10546;50.674;4.616;2022-07-12T08:47:09;32.60;91.10
20773;DHT22;10546;50.674;4.616;2022-07-12T08:49:36;32.60;90.60
20773;DHT22;10546;50.674;4.616;2022-07-12T08:52:24;32.40;90.20
20773;DHT22;10546;50.674;4.616;2022-07-12T08:54:50;32.40;90.80
20773;DHT22;10546;50.674;4.616;2022-07-12T08:57:28;32.70;90.80
20773;DHT22;10546;50.674;4.616;2022-07-12T09:00:01;32.90;90.50
20773;DHT22;10546;50.674;4.616;2022-07-12T09:02:27;32.70;90.30
20773;DHT22;10546;50.674;4.616;2022-07-12T09:05:08;33.10;90.50
20773;DHT22;10546;50.674;4.616;2022-07-12T09:07:35;33.20;90.10
20773;DHT22;10546;50.674;4.616;2022-07-12T09:10:07;34.00;88.40
20773;DHT22;10546;50.674;4.616;2022-07-12T09:12:34;34.20;87.00
20773;DHT22;10546;50.674;4.616;2022-07-12T09:15:21;34.30;85.50
20773;DHT22;10546;50.674;4.616;2022-07-12T09:18:00;35.20;85.00
20773;DHT22;10546;50.674;4.616;2022-07-12T09:20:27;35.90;84.10
20773;DHT22;10546;50.674;4.616;2022-07-12T09:22:58;36.70;82.40
20773;DHT22;10546;50.674;4.616;2022-07-12T09:25:25;36.20;80.80
20773;DHT22;10546;50.674;4.616;2022-07-12T09:27:58;36.30;80.90
20773;DHT22;10546;50.674;4.616;2022-07-12T09:30:26;37.00;79.50
20773;DHT22;10546;50.674;4.616;2022-07-12T09:33:00;37.20;79.10
20773;DHT22;10546;50.674;4.616;2022-07-12T09:38:38;36.90;76.50
20773;DHT22;10546;50.674;4.616;2022-07-12T09:41:05;37.20;75.90
20773;DHT22;10546;50.674;4.616;2022-07-12T09:43:31;36.70;75.30
20773;DHT22;10546;50.674;4.616;2022-07-12T09:45:58;36.70;76.50
20773;DHT22;10546;50.674;4.616;2022-07-12T09:48:26;36.90;77.10
20773;DHT22;10546;50.674;4.616;2022-07-12T09:50:53;36.80;76.10
20773;DHT22;10546;50.674;4.616;2022-07-12T09:53:22;36.70;76.20
20773;DHT22;10546;50.674;4.616;2022-07-12T09:55:52;36.20;74.90
20773;DHT22;10546;50.674;4.616;2022-07-12T09:58:26;35.70;75.80
20773;DHT22;10546;50.674;4.616;2022-07-12T10:00:53;35.40;75.10
20773;DHT22;10546;50.674;4.616;2022-07-12T10:03:23;35.40;77.10
20773;DHT22;10546;50.674;4.616;2022-07-12T10:05:51;36.00;74.60
20773;DHT22;10546;50.674;4.616;2022-07-12T10:08:21;36.00;74.90
20773;DHT22;10546;50.674;4.616;2022-07-12T10:10:48;36.40;75.20
20773;DHT22;10546;50.674;4.616;2022-07-12T10:13:17;36.80;74.20
20773;DHT22;10546;50.674;4.616;2022-07-12T10:15:45;37.10;74.00
20773;DHT22;10546;50.674;4.616;2022-07-12T10:18:20;37.10;74.20
20773;DHT22;10546;50.674;4.616;2022-07-12T10:20:47;36.60;72.00
20773;DHT22;10546;50.674;4.616;2022-07-12T10:23:26;36.40;71.70
20773;DHT22;10546;50.674;4.616;2022-07-12T10:25:52;36.40;72.20
20773;DHT22;10546;50.674;4.616;2022-07-12T10:28:18;36.20;72.40
20773;DHT22;10546;50.674;4.616;2022-07-12T10:30:46;36.10;72.00
20773;DHT22;10546;50.674;4.616;2022-07-12T10:33:20;36.10;72.40
20773;DHT22;10546;50.674;4.616;2022-07-12T10:36:02;36.20;70.50
20773;DHT22;10546;50.674;4.616;2022-07-12T10:38:29;36.20;71.60
20773;DHT22;10546;50.674;4.616;2022-07-12T10:40:55;36.20;71.60
20773;DHT22;10546;50.674;4.616;2022-07-12T10:43:25;36.10;71.30
20773;DHT22;10546;50.674;4.616;2022-07-12T10:46:16;36.00;70.60
20773;DHT22;10546;50.674;4.616;2022-07-12T10:48:44;35.70;70.40
20773;DHT22;10546;50.674;4.616;2022-07-12T10:51:15;35.50;71.90
20773;DHT22;10546;50.674;4.616;2022-07-12T10:53:41;35.50;72.20
20773;DHT22;10546;50.674;4.616;2022-07-12T10:56:22;35.60;70.80
20773;DHT22;10546;50.674;4.616;2022-07-12T10:58:56;35.40;69.30
20773;DHT22;10546;50.674;4.616;2022-07-12T11:01:24;35.20;68.80
20773;DHT22;10546;50.674;4.616;2022-07-12T11:04:06;35.00;69.00
20773;DHT22;10546;50.674;4.616;2022-07-12T11:06:38;35.20;70.00
20773;DHT22;10546;50.674;4.616;2022-07-12T11:09:09;34.80;69.00
20773;DHT22;10546;50.674;4.616;2022-07-12T11:11:43;34.50;71.20
20773;DHT22;10546;50.674;4.616;2022-07-12T11:14:10;34.50;70.40
20773;DHT22;10546;50.674;4.616;2022-07-12T11:16:46;34.40;70.20
20773;DHT22;10546;50.674;4.616;2022-07-12T11:19:16;34.40;70.00
20773;DHT22;10546;50.674;4.616;2022-07-12T11:21:45;34.30;70.10
20773;DHT22;10546;50.674;4.616;2022-07-12T11:24:18;34.20;71.50
20773;DHT22;10546;50.674;4.616;2022-07-12T11:26:44;34.10;71.70
20773;DHT22;10546;50.674;4.616;2022-07-12T11:29:11;33.40;73.10
20773;DHT22;10546;50.674;4.616;2022-07-12T11:31:37;33.50;70.20
20773;DHT22;10546;50.674;4.616;2022-07-12T11:34:03;33.70;71.20
20773;DHT22;10546;50.674;4.616;2022-07-12T11:36:29;33.10;71.40
20773;DHT22;10546;50.674;4.616;2022-07-12T11:38:55;33.20;71.80
20773;DHT22;10546;50.674;4.616;2022-07-12T11:41:20;32.90;71.00
20773;DHT22;10546;50.674;4.616;2022-07-12T11:43:48;32.80;72.80
20773;DHT22;10546;50.674;4.616;2022-07-12T11:46:14;33.10;73.60
20773;DHT22;10546;50.674;4.616;2022-07-12T11:48:42;33.00;73.10
20773;DHT22;10546;50.674;4.616;2022-07-12T11:51:11;32.80;70.40
20773;DHT22;10546;50.674;4.616;2022-07-12T11:53:38;33.00;72.40
20773;DHT22;10546;50.674;4.616;2022-07-12T11:56:06;32.90;72.20
20773;DHT22;10546;50.674;4.616;2022-07-12T11:58:32;33.20;74.20
20773;DHT22;10546;50.674;4.616;2022-07-12T12:00:58;33.00;72.20
20773;DHT22;10546;50.674;4.616;2022-07-12T12:03:24;32.70;71.40
20773;DHT22;10546;50.674;4.616;2022-07-12T12:05:56;32.90;71.50
20773;DHT22;10546;50.674;4.616;2022-07-12T12:08:23;32.80;71.30
20773;DHT22;10546;50.674;4.616;2022-07-12T12:10:57;33.10;70.20
20773;DHT22;10546;50.674;4.616;2022-07-12T12:13:25;32.90;70.00
20773;DHT22;10546;50.674;4.616;2022-07-12T12:15:53;33.20;71.00
20773;DHT22;10546;50.674;4.616;2022-07-12T12:18:34;33.20;69.70
20773;DHT22;10546;50.674;4.616;2022-07-12T12:21:05;33.00;69.70
20773;DHT22;10546;50.674;4.616;2022-07-12T12:23:32;33.00;70.80
20773;DHT22;10546;50.674;4.616;2022-07-12T12:26:18;33.20;70.60
20773;DHT22;10546;50.674;4.616;2022-07-12T12:28:50;33.50;70.10
20773;DHT22;10546;50.674;4.616;2022-07-12T12:31:18;33.50;68.60
20773;DHT22;10546;50.674;4.616;2022-07-12T12:33:46;33.60;69.80
20773;DHT22;10546;50.674;4.616;2022-07-12T12:36:23;33.80;67.50
20773;DHT22;10546;50.674;4.616;2022-07-12T12:38:55;33.70;66.60
20773;DHT22;10546;50.674;4.616;2022-07-12T12:41:22;33.80;65.70
20773;DHT22;10546;50.674;4.616;2022-07-12T12:43:59;33.90;63.70
20773;DHT22;10546;50.674;4.616;2022-07-12T12:46:51;34.10;65.50
20773;DHT22;10546;50.674;4.616;2022-07-12T12:49:48;33.70;66.10
20773;DHT22;10546;50.674;4.616;2022-07-12T12:52:17;33.80;65.90
20773;DHT22;10546;50.674;4.616;2022-07-12T12:54:43;33.20;66.10
20773;DHT22;10546;50.674;4.616;2022-07-12T12:57:10;33.40;65.70
20773;DHT22;10546;50.674;4.616;2022-07-12T12:59:37;33.80;66.90
20773;DHT22;10546;50.674;4.616;2022-07-12T13:02:04;33.70;66.40
20773;DHT22;10546;50.674;4.616;2022-07-12T13:04:31;33.80;66.90
20773;DHT22;10546;50.674;4.616;2022-07-12T13:06:57;33.80;66.40
20773;DHT22;10546;50.674;4.616;2022-07-12T13:09:23;33.80;66.00
20773;DHT22;10546;50.674;4.616;2022-07-12T13:11:50;34.10;66.70
20773;DHT22;10546;50.674;4.616;2022-07-12T13:14:16;34.20;65.70
20773;DHT22;10546;50.674;4.616;2022-07-12T13:16:41;34.20;67.80
20773;DHT22;10546;50.674;4.616;2022-07-12T13:19:07;34.30;67.50
20773;DHT22;10546;50.674;4.616;2022-07-12T13:21:33;34.40;66.30
20773;DHT22;10546;50.674;4.616;2022-07-12T13:23:59;34.50;64.90
20773;DHT22;10546;50.674;4.616;2022-07-12T13:26:27;34.50;65.30
20773;DHT22;10546;50.674;4.616;2022-07-12T13:28:54;34.10;63.70
20773;DHT22;10546;50.674;4.616;2022-07-12T13:31:20;34.20;65.40
20773;DHT22;10546;50.674;4.616;2022-07-12T13:33:46;34.00;63.20
20773;DHT22;10546;50.674;4.616;2022-07-12T13:36:12;33.80;63.60
20773;DHT22;10546;50.674;4.616;2022-07-12T13:38:38;33.90;62.00
20773;DHT22;10546;50.674;4.616;2022-07-12T13:41:04;33.80;64.10
20773;DHT22;10546;50.674;4.616;2022-07-12T13:43:30;33.80;60.10
20773;DHT22;10546;50.674;4.616;2022-07-12T13:45:55;33.70;59.20
20773;DHT22;10546;50.674;4.616;2022-07-12T13:48:21;33.50;60.00
20773;DHT22;10546;50.674;4.616;2022-07-12T13:50:47;33.70;59.90
20773;DHT22;10546;50.674;4.616;2022-07-12T13:53:13;33.80;60.30
20773;DHT22;10546;50.674;4.616;2022-07-12T13:55:42;34.10;62.00
20773;DHT22;10546;50.674;4.616;2022-07-12T13:58:08;33.80;61.20
20773;DHT22;10546;50.674;4.616;2022-07-12T14:00:34;33.90;61.10
20773;DHT22;10546;50.674;4.616;2022-07-12T14:03:00;34.20;61.20
20773;DHT22;10546;50.674;4.616;2022-07-12T14:05:26;34.00;62.40
20773;DHT22;10546;50.674;4.616;2022-07-12T14:07:51;34.00;62.40
20773;DHT22;10546;50.674;4.616;2022-07-12T14:10:18;34.10;62.70
20773;DHT22;10546;50.674;4.616;2022-07-12T14:12:43;34.10;61.60
20773;DHT22;10546;50.674;4.616;2022-07-12T14:15:10;34.00;63.30
20773;DHT22;10546;50.674;4.616;2022-07-12T14:17:49;34.10;62.30
20773;DHT22;10546;50.674;4.616;2022-07-12T14:20:20;34.20;61.90
20773;DHT22;10546;50.674;4.616;2022-07-12T14:22:46;33.80;63.40
20773;DHT22;10546;50.674;4.616;2022-07-12T14:25:13;33.60;63.30
20773;DHT22;10546;50.674;4.616;2022-07-12T14:27:39;34.00;64.30
20773;DHT22;10546;50.674;4.616;2022-07-12T14:30:10;33.90;64.00
20773;DHT22;10546;50.674;4.616;2022-07-12T14:32:36;34.20;62.80
20773;DHT22;10546;50.674;4.616;2022-07-12T14:35:03;34.00;65.00
20773;DHT22;10546;50.674;4.616;2022-07-12T14:37:28;33.80;63.40
20773;DHT22;10546;50.674;4.616;2022-07-12T14:39:54;33.50;62.90
20773;DHT22;10546;50.674;4.616;2022-07-12T14:42:20;33.60;64.10
20773;DHT22;10546;50.674;4.616;2022-07-12T14:44:45;33.60;63.70
20773;DHT22;10546;50.674;4.616;2022-07-12T14:47:11;33.60;64.00
20773;DHT22;10546;50.674;4.616;2022-07-12T14:49:37;33.20;63.50
20773;DHT22;10546;50.674;4.616;2022-07-12T14:52:04;33.10;64.30
20773;DHT22;10546;50.674;4.616;2022-07-12T14:54:31;32.50;65.20
20773;DHT22;10546;50.674;4.616;2022-07-12T14:56:57;32.40;65.50
20773;DHT22;10546;50.674;4.616;2022-07-12T14:59:23;32.30;65.90
20773;DHT22;10546;50.674;4.616;2022-07-12T15:01:48;32.60;67.40
20773;DHT22;10546;50.674;4.616;2022-07-12T15:04:14;32.90;65.30
20773;DHT22;10546;50.674;4.616;2022-07-12T15:06:40;32.90;65.30
20773;DHT22;10546;50.674;4.616;2022-07-12T15:09:06;33.10;66.20
20773;DHT22;10546;50.674;4.616;2022-07-12T15:11:32;33.00;63.90
20773;DHT22;10546;50.674;4.616;2022-07-12T15:13:57;32.80;63.90
20773;DHT22;10546;50.674;4.616;2022-07-12T15:16:23;32.80;65.80
20773;DHT22;10546;50.674;4.616;2022-07-12T15:18:49;32.60;64.60
20773;DHT22;10546;50.674;4.616;2022-07-12T15:21:15;32.50;64.40
20773;DHT22;10546;50.674;4.616;2022-07-12T15:23:41;32.50;63.40
20773;DHT22;10546;50.674;4.616;2022-07-12T15:26:06;32.40;63.60
20773;DHT22;10546;50.674;4.616;2022-07-12T15:28:32;32.20;65.10
20773;DHT22;10546;50.674;4.616;2022-07-12T15:30:59;32.20;64.20
20773;DHT22;10546;50.674;4.616;2022-07-12T15:33:25;32.30;63.60
20773;DHT22;10546;50.674;4.616;2022-07-12T15:35:51;32.20;65.10
20773;DHT22;10546;50.674;4.616;2022-07-12T15:38:17;32.40;65.80
20773;DHT22;10546;50.674;4.616;2022-07-12T15:40:43;32.60;64.30
20773;DHT22;10546;50.674;4.616;2022-07-12T15:43:09;32.10;64.30
20773;DHT22;10546;50.674;4.616;2022-07-12T15:45:37;32.20;65.40
20773;DHT22;10546;50.674;4.616;2022-07-12T15:48:03;32.30;64.90
20773;DHT22;10546;50.674;4.616;2022-07-12T15:50:29;32.40;66.60
20773;DHT22;10546;50.674;4.616;2022-07-12T15:52:55;32.50;66.70
20773;DHT22;10546;50.674;4.616;2022-07-12T15:55:39;32.50;65.50
20773;DHT22;10546;50.674;4.616;2022-07-12T15:58:05;32.60;66.20
20773;DHT22;10546;50.674;4.616;2022-07-12T16:00:32;32.80;67.00
20773;DHT22;10546;50.674;4.616;2022-07-12T16:02:58;32.80;65.70
20773;DHT22;10546;50.674;4.616;2022-07-12T16:05:23;32.60;64.60
20773;DHT22;10546;50.674;4.616;2022-07-12T16:07:49;32.70;64.80
20773;DHT22;10546;50.674;4.616;2022-07-12T16:10:17;33.00;65.30
20773;DHT22;10546;50.674;4.616;2022-07-12T16:12:42;33.00;63.90
20773;DHT22;10546;50.674;4.616;2022-07-12T16:15:09;32.90;64.60
20773;DHT22;10546;50.674;4.616;2022-07-12T16:17:34;32.90;62.20
20773;DHT22;10546;50.674;4.616;2022-07-12T16:20:00;32.60;63.00
20773;DHT22;10546;50.674;4.616;2022-07-12T16:22:26;32.40;63.10
20773;DHT22;10546;50.674;4.616;2022-07-12T16:24:52;32.30;63.60
20773;DHT22;10546;50.674;4.616;2022-07-12T16:27:18;32.40;64.10
20773;DHT22;10546;50.674;4.616;2022-07-12T16:29:43;32.40;62.60
20773;DHT22;10546;50.674;4.616;2022-07-12T16:32:09;32.50;63.30
20773;DHT22;10546;50.674;4.616;2022-07-12T16:34:34;32.50;62.00
20773;DHT22;10546;50.674;4.616;2022-07-12T16:37:00;32.20;62.40
20773;DHT22;10546;50.674;4.616;2022-07-12T16:39:26;32.10;62.40
20773;DHT22;10546;50.674;4.616;2022-07-12T16:41:52;32.20;63.40
20773;DHT22;10546;50.674;4.616;2022-07-12T16:44:17;32.10;63.10
20773;DHT22;10546;50.674;4.616;2022-07-12T16:46:43;32.20;63.80
20773;DHT22;10546;50.674;4.616;2022-07-12T16:49:08;32.20;64.90
20773;DHT22;10546;50.674;4.616;2022-07-12T16:51:34;32.20;64.20
20773;DHT22;10546;50.674;4.616;2022-07-12T16:54:00;32.30;64.40
20773;DHT22;10546;50.674;4.616;2022-07-12T16:56:28;32.50;64.50
20773;DHT22;10546;50.674;4.616;2022-07-12T16:58:54;32.60;64.20
20773;DHT22;10546;50.674;4.616;2022-07-12T17:01:21;32.70;65.00
20773;DHT22;10546;50.674;4.616;2022-07-12T17:03:47;33.00;63.60
20773;DHT22;10546;50.674;4.616;2022-07-12T17:06:13;32.90;64.80
20773;DHT22;10546;50.674;4.616;2022-07-12T17:08:39;32.50;64.80
20773;DHT22;10546;50.674;4.616;2022-07-12T17:11:05;32.50;66.20
20773;DHT22;10546;50.674;4.616;2022-07-12T17:13:31;32.60;66.00
20773;DHT22;10546;50.674;4.616;2022-07-12T17:15:57;32.50;66.60
20773;DHT22;10546;50.674;4.616;2022-07-12T17:18:23;32.30;66.70
20773;DHT22;10546;50.674;4.616;2022-07-12T17:20:49;32.20;66.90
20773;DHT22;10546;50.674;4.616;2022-07-12T17:23:14;32.10;64.80
20773;DHT22;10546;50.674;4.616;2022-07-12T17:25:40;31.90;65.30
20773;DHT22;10546;50.674;4.616;2022-07-12T17:28:06;32.00;66.60
20773;DHT22;10546;50.674;4.616;2022-07-12T17:30:31;31.80;66.80
20773;DHT22;10546;50.674;4.616;2022-07-12T17:32:59;31.70;66.80
20773;DHT22;10546;50.674;4.616;2022-07-12T17:35:31;31.60;66.80
20773;DHT22;10546;50.674;4.616;2022-07-12T17:37:57;31.50;67.20
20773;DHT22;10546;50.674;4.616;2022-07-12T17:40:23;31.20;69.10
20773;DHT22;10546;50.674;4.616;2022-07-12T17:42:49;31.00;69.60
20773;DHT22;10546;50.674;4.616;2022-07-12T17:45:14;31.10;69.30
20773;DHT22;10546;50.674;4.616;2022-07-12T17:47:40;30.90;70.10
20773;DHT22;10546;50.674;4.616;2022-07-12T17:50:07;30.90;69.70
20773;DHT22;10546;50.674;4.616;2022-07-12T17:52:43;31.20;67.70
20773;DHT22;10546;50.674;4.616;2022-07-12T17:55:11;31.20;68.90
20773;DHT22;10546;50.674;4.616;2022-07-12T17:57:38;31.00;68.70
20773;DHT22;10546;50.674;4.616;2022-07-12T18:00:05;31.10;67.90
20773;DHT22;10546;50.674;4.616;2022-07-12T18:02:32;30.90;67.60
20773;DHT22;10546;50.674;4.616;2022-07-12T18:04:58;31.00;67.20
20773;DHT22;10546;50.674;4.616;2022-07-12T18:07:23;30.90;68.00
20773;DHT22;10546;50.674;4.616;2022-07-12T18:09:50;30.80;69.00
20773;DHT22;10546;50.674;4.616;2022-07-12T18:12:15;30.80;67.30
20773;DHT22;10546;50.674;4.616;2022-07-12T18:14:59;30.80;68.20
20773;DHT22;10546;50.674;4.616;2022-07-12T18:17:25;30.80;69.80
20773;DHT22;10546;50.674;4.616;2022-07-12T18:20:10;30.80;68.50
20773;DHT22;10546;50.674;4.616;2022-07-12T18:22:35;30.80;68.00
20773;DHT22;10546;50.674;4.616;2022-07-12T18:25:01;30.80;67.70
20773;DHT22;10546;50.674;4.616;2022-07-12T18:27:27;30.60;68.50
20773;DHT22;10546;50.674;4.616;2022-07-12T18:29:53;30.60;70.50
20773;DHT22;10546;50.674;4.616;2022-07-12T18:32:21;30.40;70.70
20773;DHT22;10546;50.674;4.616;2022-07-12T18:34:47;30.30;70.70
20773;DHT22;10546;50.674;4.616;2022-07-12T18:37:14;30.10;69.10
20773;DHT22;10546;50.674;4.616;2022-07-12T18:39:40;29.90;70.00
20773;DHT22;10546;50.674;4.616;2022-07-12T18:42:06;29.80;72.00
20773;DHT22;10546;50.674;4.616;2022-07-12T18:44:32;29.80;72.00
20773;DHT22;10546;50.674;4.616;2022-07-12T18:46:58;29.80;72.50
20773;DHT22;10546;50.674;4.616;2022-07-12T18:49:24;29.60;73.70
20773;DHT22;10546;50.674;4.616;2022-07-12T18:51:50;29.60;74.10
20773;DHT22;10546;50.674;4.616;2022-07-12T18:54:16;29.50;73.90
20773;DHT22;10546;50.674;4.616;2022-07-12T18:56:42;29.50;73.60
20773;DHT22;10546;50.674;4.616;2022-07-12T18:59:07;29.40;71.30
20773;DHT22;10546;50.674;4.616;2022-07-12T19:01:33;29.40;72.10
20773;DHT22;10546;50.674;4.616;2022-07-12T19:03:59;29.40;72.90
20773;DHT22;10546;50.674;4.616;2022-07-12T19:06:24;29.30;74.20
20773;DHT22;10546;50.674;4.616;2022-07-12T19:08:50;29.20;74.20
20773;DHT22;10546;50.674;4.616;2022-07-12T19:11:16;29.20;74.60
20773;DHT22;10546;50.674;4.616;2022-07-12T19:13:41;29.20;75.30
20773;DHT22;10546;50.674;4.616;2022-07-12T19:16:07;29.20;76.00
20773;DHT22;10546;50.674;4.616;2022-07-12T19:18:32;29.20;76.10
20773;DHT22;10546;50.674;4.616;2022-07-12T19:20:58;29.10;76.60
20773;DHT22;10546;50.674;4.616;2022-07-12T19:23:24;29.00;77.00
20773;DHT22;10546;50.674;4.616;2022-07-12T19:25:50;29.00;77.20
20773;DHT22;10546;50.674;4.616;2022-07-12T19:28:20;28.90;77.10
20773;DHT22;10546;50.674;4.616;2022-07-12T19:30:46;28.80;77.70
20773;DHT22;10546;50.674;4.616;2022-07-12T19:33:11;28.70;78.70
20773;DHT22;10546;50.674;4.616;2022-07-12T19:35:37;28.70;78.40
20773;DHT22;10546;50.674;4.616;2022-07-12T19:38:05;28.60;79.00
20773;DHT22;10546;50.674;4.616;2022-07-12T19:40:32;28.50;79.10
20773;DHT22;10546;50.674;4.616;2022-07-12T19:42:57;28.50;78.70
20773;DHT22;10546;50.674;4.616;2022-07-12T19:45:23;28.40;79.00
20773;DHT22;10546;50.674;4.616;2022-07-12T19:47:49;28.50;79.20
20773;DHT22;10546;50.674;4.616;2022-07-12T19:50:18;28.40;79.60
20773;DHT22;10546;50.674;4.616;2022-07-12T19:52:45;28.40;80.80
20773;DHT22;10546;50.674;4.616;2022-07-12T19:55:11;28.40;80.90
20773;DHT22;10546;50.674;4.616;2022-07-12T19:57:36;28.30;81.10
20773;DHT22;10546;50.674;4.616;2022-07-12T20:00:06;28.30;80.40
20773;DHT22;10546;50.674;4.616;2022-07-12T20:02:33;28.30;80.50
20773;DHT22;10546;50.674;4.616;2022-07-12T20:04:59;28.30;81.10
20773;DHT22;10546;50.674;4.616;2022-07-12T20:07:25;28.10;80.60
20773;DHT22;10546;50.674;4.616;2022-07-12T20:09:50;28.10;82.00
20773;DHT22;10546;50.674;4.616;2022-07-12T20:12:16;28.00;81.80
20773;DHT22;10546;50.674;4.616;2022-07-12T20:14:42;27.90;80.50
20773;DHT22;10546;50.674;4.616;2022-07-12T20:17:08;27.80;80.60
20773;DHT22;10546;50.674;4.616;2022-07-12T20:19:35;27.80;80.70
20773;DHT22;10546;50.674;4.616;2022-07-12T20:22:02;27.70;80.30
20773;DHT22;10546;50.674;4.616;2022-07-12T20:24:28;27.70;81.30
20773;DHT22;10546;50.674;4.616;2022-07-12T20:26:54;27.70;81.30
20773;DHT22;10546;50.674;4.616;2022-07-12T20:29:20;27.60;81.50
20773;DHT22;10546;50.674;4.616;2022-07-12T20:31:46;27.50;81.30
20773;DHT22;10546;50.674;4.616;2022-07-12T20:34:12;27.40;81.60
20773;DHT22;10546;50.674;4.616;2022-07-12T20:36:56;27.40;81.60
20773;DHT22;10546;50.674;4.616;2022-07-12T20:39:23;27.40;81.30
20773;DHT22;10546;50.674;4.616;2022-07-12T20:41:49;27.40;80.80
20773;DHT22;10546;50.674;4.616;2022-07-12T20:44:19;27.50;80.60
20773;DHT22;10546;50.674;4.616;2022-07-12T20:46:45;27.40;80.40
20773;DHT22;10546;50.674;4.616;2022-07-12T20:49:11;27.30;80.60
20773;DHT22;10546;50.674;4.616;2022-07-12T20:51:38;27.30;80.70
20773;DHT22;10546;50.674;4.616;2022-07-12T20:54:04;27.30;80.90
20773;DHT22;10546;50.674;4.616;2022-07-12T20:56:30;27.30;81.20
20773;DHT22;10546;50.674;4.616;2022-07-12T20:58:57;27.20;81.40
20773;DHT22;10546;50.674;4.616;2022-07-12T21:01:23;27.10;81.60
20773;DHT22;10546;50.674;4.616;2022-07-12T21:03:49;27.00;81.60
20773;DHT22;10546;50.674;4.616;2022-07-12T21:06:15;27.00;81.30
20773;DHT22;10546;50.674;4.616;2022-07-12T21:08:40;27.00;81.30
20773;DHT22;10546;50.674;4.616;2022-07-12T21:11:06;27.00;81.20
20773;DHT22;10546;50.674;4.616;2022-07-12T21:13:32;27.00;81.30
20773;DHT22;10546;50.674;4.616;2022-07-12T21:15:57;26.90;81.50
20773;DHT22;10546;50.674;4.616;2022-07-12T21:18:23;27.00;81.30
20773;DHT22;10546;50.674;4.616;2022-07-12T21:20:49;27.00;81.50
20773;DHT22;10546;50.674;4.616;2022-07-12T21:23:14;26.90;81.90
20773;DHT22;10546;50.674;4.616;2022-07-12T21:25:42;26.90;81.50